Flight Track Log - Related Links

Times and Time Zones

All times are in EDT time to prevent confusion due to time zone crossing. See the N508QS flight status page for this flight to view local times or setup timezone preferences in your user account.

Time Position Orientation Groundspeed Altitude Reporting Facility
EDT Latitude Longitude Course Direction KTS MPH feet Rate Location/Type
Sat 12:54:59 PM 41.9333 -87.9000 124° Southeast 226 260 3,400  Level Chicago TRACON
Sat 12:55:59 PM 41.9000 -87.8333 124° Southeast 267 307 5,000 1,833 Climbing Chicago TRACON
Sat 12:57:59 PM 41.9675 -87.6494 64° Northeast 280 322 8,900 2,751 Climbing Chicago Center
Sat 12:59:00 PM 42.0136 -87.5597 55° Northeast 291 335 13,300 4,098 Climbing Chicago Center
Sat 01:00:02 PM 42.0658 -87.4642 54° Northeast 316 364 17,300 3,581 Climbing Chicago Center
Sat 01:01:04 PM 42.1197 -87.3622 55° Northeast 332 382 20,700 2,516 Climbing Chicago Center
Sat 01:02:06 PM 42.1811 -87.2389 56° Northeast 395 455 22,500 2,537 Climbing Chicago Center
Sat 01:03:07 PM 42.1978 -87.0433 83° East 438 504 25,900 3,024 Climbing Chicago Center
Sat 01:04:09 PM 42.2075 -86.8722 86° East 454 522 28,700 2,565 Climbing Chicago Center
Sat 01:05:11 PM 42.2181 -86.6936 85° East 473 544 31,200 3,073 Climbing Chicago Center
Sat 01:06:12 PM 42.2281 -86.5106 86° East 474 545 35,000 2,976 Climbing Chicago Center
Sat 01:07:14 PM 42.2367 -86.3375 86° East 465 535 37,300 2,177 Climbing Chicago Center
Sat 01:08:16 PM 42.2464 -86.1608 86° East 470 541 39,500 1,805 Climbing Chicago Center
Sat 01:09:17 PM 42.2556 -85.9844 86° East 470 541 41,000 732 Climbing Chicago Center
Sat 01:10:19 PM 42.2647 -85.7869 86° East 475 547 41,000  Level Chicago Center
Sat 01:11:21 PM 42.2731 -85.6108 86° East 474 545 41,000  Level Chicago Center
Sat 01:12:22 PM 42.2825 -85.4314 86° East 481 554 41,000  Level Chicago Center
Sat 01:13:24 PM 42.2906 -85.2558 86° East 475 547 41,000  Level Chicago Center
Sat 01:14:32 PM 42.3022 -85.0558 85° East 460 529 41,000  Level Cleveland Center
Sat 01:15:32 PM 42.3008 -84.8789 91° East 460 529 41,000  Level Cleveland Center
Sat 01:16:32 PM 42.3094 -84.6997 86° East 460 529 41,000  Level Cleveland Center
Sat 01:17:32 PM 42.3219 -84.5153 85° East 460 529 41,000  Level Cleveland Center
Sat 01:18:32 PM 42.3381 -84.3447 83° East 460 529 41,000  Level Cleveland Center
Sat 01:19:32 PM 42.3522 -84.1686 84° East 460 529 41,000  Level Cleveland Center
Sat 01:20:32 PM 42.3681 -83.9922 83° East 460 529 41,000  Level Cleveland Center
Sat 01:21:32 PM 42.3806 -83.8411 84° East 460 529 41,000  Level Cleveland Center
Sat 01:22:32 PM 42.3958 -83.6675 83° East 460 529 41,000  Level Cleveland Center
Sat 01:23:32 PM 42.4089 -83.4939 84° East 460 529 41,000  Level Cleveland Center
Sat 01:24:32 PM 42.4192 -83.3200 85° East 468 539 41,000  Level Cleveland Center
Sat 01:25:32 PM 42.4358 -83.1433 83° East 460 529 41,000  Level Cleveland Center
Sat 01:26:32 PM 42.4478 -82.9722 85° East 460 529 41,000  Level Cleveland Center
Sat 01:27:32 PM 42.4597 -82.7953 85° East 460 529 41,000  Level Cleveland Center
Sat 01:28:32 PM 42.4733 -82.6242 84° East 460 529 41,000  Level Cleveland Center
Sat 01:29:32 PM 42.4847 -82.4469 85° East 460 529 41,000  Level Cleveland Center
Sat 01:30:32 PM 42.4956 -82.2811 85° East 460 529 41,000  Level Cleveland Center
Sat 01:31:32 PM 42.5064 -82.1011 85° East 460 529 41,000  Level Cleveland Center
Sat 01:32:32 PM 42.5169 -81.9325 85° East 460 529 41,000  Level Cleveland Center
Sat 01:33:32 PM 42.5317 -81.7356 84° East 460 529 41,000  Level Cleveland Center
Sat 01:34:32 PM 42.5414 -81.5639 86° East 462 532 41,000  Level Cleveland Center
Sat 01:35:32 PM 42.5533 -81.3922 85° East 454 522 41,000  Level Cleveland Center
Sat 01:36:32 PM 42.5625 -81.2317 86° East 459 528 41,000  Level Cleveland Center
Sat 01:37:32 PM 42.5717 -81.0625 86° East 459 528 41,000  Level Cleveland Center
Sat 01:38:32 PM 42.5828 -80.8850 85° East 459 528 41,000  Level Cleveland Center
Sat 01:39:32 PM 42.5914 -80.7072 86° East 467 537 41,000  Level Cleveland Center
Sat 01:40:32 PM 42.5997 -80.5325 86° East 467 537 41,000  Level Cleveland Center
Sat 01:41:32 PM 42.6122 -80.3433 85° East 462 532 41,000  Level Cleveland Center
Sat 01:42:32 PM 42.6200 -80.1683 86° East 463 533 41,000  Level Cleveland Center
Sat 01:43:32 PM 42.6256 -79.9906 88° East 463 533 41,000  Level Cleveland Center
Sat 01:44:33 PM 42.6369 -79.8183 85° East 463 533 41,000  Level Cleveland Center
Sat 01:45:32 PM 42.6419 -79.6433 88° East 463 533 41,000  Level Cleveland Center
Sat 01:46:32 PM 42.6528 -79.4653 85° East 463 533 41,000  Level Cleveland Center
Sat 01:47:32 PM 42.6614 -79.2872 86° East 463 533 41,000  Level Cleveland Center
Sat 01:48:32 PM 42.6656 -79.1122 88° East 463 533 41,000  Level Cleveland Center
Sat 01:49:32 PM 42.6736 -78.9342 86° East 463 533 41,000  Level Cleveland Center
Sat 01:50:32 PM 42.6792 -78.7531 88° East 463 533 41,000  Level Cleveland Center
Sat 01:51:32 PM 42.6844 -78.5750 88° East 479 551 41,000  Level Cleveland Center
Sat 01:52:32 PM 42.6917 -78.3911 87° East 479 551 41,000  Level Cleveland Center
Sat 01:53:32 PM 42.6964 -78.2103 88° East 479 551 41,000  Level Cleveland Center
Sat 01:54:32 PM 42.7028 -78.0264 87° East 479 551 41,000  Level Cleveland Center
Sat 01:55:32 PM 42.7075 -77.8678 88° East 479 551 41,000  Level Cleveland Center
Sat 01:56:32 PM 42.7114 -77.6839 88° East 479 551 41,000  Level Cleveland Center
Sat 01:57:32 PM 42.7169 -77.4942 88° East 486 559 41,000  Level Cleveland Center
Sat 01:59:55 PM 42.7267 -77.0281 88° East 496 571 41,000  Level Boston Center
Sat 02:00:55 PM 42.7300 -76.8389 89° East 496 571 41,000  Level Boston Center
Sat 02:01:55 PM 42.7331 -76.6497 89° East 496 571 41,000  Level Boston Center
Sat 02:02:55 PM 42.7358 -76.4575 89° East 496 571 41,000  Level Boston Center
Sat 02:03:55 PM 42.7383 -76.2625 89° East 501 577 41,000  Level Boston Center
Sat 02:04:55 PM 42.7419 -76.0903 88° East 501 577 41,000 -350 Level Boston Center
Sat 02:05:55 PM 42.7425 -75.8753 90° East 511 588 40,300 -1,150 Descending Boston Center
Sat 02:06:55 PM 42.7458 -75.6861 89° East 511 588 38,700 -1,950 Descending Boston Center
Sat 02:07:55 PM 42.7469 -75.4967 89° East 511 588 36,400 -2,050 Descending Boston Center
Sat 02:08:55 PM 42.7478 -75.3014 90° East 506 582 34,600 -1,850 Descending Boston Center
Sat 02:09:55 PM 42.7483 -75.1064 90° East 512 589 32,700 -1,850 Descending Boston Center
Sat 02:10:55 PM 42.7489 -74.9000 90° East 517 595 30,900 -1,800 Descending Boston Center
Sat 02:11:55 PM 42.7508 -74.7050 89° East 517 595 29,100 -950 Descending Boston Center
Sat 02:12:55 PM 42.7483 -74.5125 91° East 512 589 29,000 -50 Descending Boston Center
Sat 02:13:55 PM 42.7497 -74.3175 89° East 512 589 29,000 -50 Level Boston Center
Sat 02:14:55 PM 42.7486 -74.1225 90° East 512 589 28,900 -300 Descending Boston Center
Sat 02:15:55 PM 42.7450 -73.9300 91° East 512 589 28,400 -500 Descending Boston Center
Sat 02:16:55 PM 42.7389 -73.7375 92° East 512 589 27,900 -650 Descending Boston Center
Sat 02:17:55 PM 42.7242 -73.5706 97° East 512 589 27,100 -1,150 Descending Boston Center
Sat 02:18:55 PM 42.7028 -73.3836 99° East 506 582 25,600 -1,500 Descending Boston Center
Sat 02:19:55 PM 42.6833 -73.2056 98° East 497 572 24,100 -800 Descending Boston Center
Sat 02:20:55 PM 42.6636 -73.0244 98° East 486 559 24,000 -250 Descending Boston Center
Sat 02:21:55 PM 42.6394 -72.8239 99° East 486 559 23,600 -1,000 Descending Boston Center
Sat 02:22:55 PM 42.6378 -72.6489 91° East 475 547 22,000 -1,500 Descending Boston Center
Sat 02:23:55 PM 42.6483 -72.5050 84° East 450 518 20,600 -1,950 Descending Boston Center
Sat 02:24:55 PM 42.6525 -72.3414 88° East 437 503 18,100 -2,650 Descending Boston Center
Sat 02:25:55 PM 42.6272 -72.1889 103° East 417 480 15,300 -2,900 Descending Boston Center
Sat 02:26:55 PM 42.5956 -72.0397 106° East 387 445 12,300 -2,600 Descending Boston Center
Sat 02:27:55 PM 42.5744 -71.9383 106° East 336 387 10,100 -2,250 Descending Boston Center
Sat 02:28:55 PM 42.5508 -71.8228 105° East 292 336 7,800 -2,050 Descending Boston Center
Sat 02:29:55 PM 42.5294 -71.7331 108° East 281 323 6,000 -1,050 Descending Boston Center
Sat 02:30:55 PM 42.5164 -71.6261 99° East 267 307 5,700 -533 Descending Boston Center
Sat 02:31:25 PM 42.5333 -71.5833 62° Northeast 256 295 5,200 -1,241 Descending KA90
Sat 02:32:22 PM 42.5667 -71.5000 61° Northeast 247 284 3,900 -1,357 Descending KA90
Sat 02:33:20 PM 42.5833 -71.4167 75° East 241 277 2,600 -1,024 Descending KA90
Sat 02:34:25 PM 42.5500 -71.3500 124° Southeast 206 237 1,800 -403 Descending KA90
Sat 02:35:19 PM 42.5333 -71.2833 109° East 190 219 1,800 52 Level KA90
Sat 02:36:20 PM 42.5167 -71.2333 114° Southeast 168 193 1,900 -50 Climbing KA90
Sat 02:37:20 PM 42.4833 -71.2000 144° Southeast 147 169 1,700 -542 Descending KA90
Sat 02:38:55 PM 42.4672 -71.2553 248° West 93 107 500 -503 Descending Boston Center
Sat 02:39:55 PM 42.4592 -71.2864 251° West 98 113 400 2,750 Descending Boston Center
Sat 02:40:55 PM 42.4533 -71.3203 257° West 98 113 6,000 2,800 Climbing Boston Center
Sat 02:41:55 PM 42.4494 -71.3567 262° West 98 113 6,000  Level Boston Center
Sat 02:42:55 PM 42.4436 -71.3906 257° West 98 113 6,000  Level Boston Center
Sat 02:43:55 PM 42.4436 -71.3992 270° West 98 113 6,000  Level Boston Center
Sat 02:45:00 PM 42.4667 -71.2833 66° East  Level FlightAware Approximate
Sat 02:52:00 PM 42.4699 -71.2890 66° East  Level Estimated

Login

Don't have an account? Register now (free) for customized features, flight alerts, and more!